createdAt,value
2018-08-18T00:00:15.416Z,15.00
2018-08-18T00:02:44.223Z,17.40
2018-08-18T00:05:13.733Z,17.17
2018-08-18T00:07:42.520Z,16.37
2018-08-18T00:10:12.750Z,15.30
2018-08-18T00:12:41.473Z,15.17
2018-08-18T00:15:10.698Z,17.80
2018-08-18T00:17:39.897Z,15.90
2018-08-18T00:20:12.189Z,19.00
2018-08-18T00:22:41.007Z,16.83
2018-08-18T00:25:09.861Z,19.57
2018-08-18T00:27:38.613Z,15.90
2018-08-18T00:30:14.180Z,17.20
2018-08-18T00:32:42.946Z,15.33
2018-08-18T00:35:11.679Z,16.17
2018-08-18T00:37:40.466Z,14.60
2018-08-18T00:40:10.373Z,16.57
2018-08-18T00:42:39.300Z,15.73
2018-08-18T00:45:09.724Z,18.80
2018-08-18T00:47:38.720Z,18.40
2018-08-18T00:50:08.110Z,17.07
2018-08-18T00:52:36.907Z,19.23
2018-08-18T00:55:05.703Z,18.97
2018-08-18T00:57:34.512Z,15.33
2018-08-18T01:00:04.442Z,16.00
2018-08-18T01:02:33.165Z,17.27
2018-08-18T01:05:02.737Z,16.57
2018-08-18T01:07:32.352Z,17.53
2018-08-18T01:10:01.437Z,15.20
2018-08-18T01:12:30.357Z,19.80
2018-08-18T01:14:59.048Z,15.17
2018-08-18T01:17:27.867Z,15.90
2018-08-18T01:19:57.950Z,17.30
2018-08-18T01:22:26.734Z,19.10
2018-08-18T01:24:55.507Z,19.87
2018-08-18T01:27:24.255Z,18.57
2018-08-18T01:30:04.367Z,20.20
2018-08-18T01:32:33.751Z,18.50
2018-08-18T01:35:02.560Z,19.30
2018-08-18T01:37:32.397Z,22.13
2018-08-18T01:40:01.569Z,21.73
2018-08-18T01:42:33.050Z,20.50
2018-08-18T01:45:01.827Z,21.07
2018-08-18T01:47:30.744Z,19.57
2018-08-18T01:50:04.334Z,19.20
2018-08-18T01:52:34.002Z,17.73
2018-08-18T01:55:02.701Z,24.50
2018-08-18T01:57:31.427Z,20.57
2018-08-18T02:00:05.270Z,20.93
2018-08-18T02:02:34.101Z,19.60
2018-08-18T02:05:11.909Z,20.20
2018-08-18T02:07:41.015Z,18.23
2018-08-18T02:10:09.759Z,24.73
2018-08-18T02:12:39.846Z,18.77
2018-08-18T02:15:08.554Z,20.27
2018-08-18T02:17:38.354Z,18.60
2018-08-18T02:20:08.885Z,21.37
2018-08-18T02:22:37.558Z,21.70
2018-08-18T02:25:06.725Z,19.07
2018-08-18T02:27:35.611Z,19.53
2018-08-18T02:30:15.015Z,19.97
2018-08-18T02:32:43.788Z,21.57
2018-08-18T02:35:12.563Z,19.90
2018-08-18T02:37:41.351Z,21.67
2018-08-18T02:40:12.422Z,18.67
2018-08-18T02:42:41.250Z,19.03
2018-08-18T02:45:10.839Z,18.07
2018-08-18T02:47:39.754Z,18.93
2018-08-18T02:50:09.581Z,18.13
2018-08-18T02:52:38.382Z,19.37
2018-08-18T02:55:09.199Z,18.13
2018-08-18T02:57:44.480Z,17.63
2018-08-18T03:00:48.396Z,19.03
2018-08-18T03:03:17.591Z,17.70
2018-08-18T03:05:46.409Z,18.23
2018-08-18T03:08:15.106Z,19.07
2018-08-18T03:10:43.856Z,18.93
2018-08-18T03:13:12.532Z,17.73
2018-08-18T03:15:57.170Z,22.30
2018-08-18T03:18:40.158Z,18.20
2018-08-18T03:21:08.835Z,23.40
2018-08-18T03:23:37.724Z,20.17
2018-08-18T03:26:06.522Z,18.10
2018-08-18T03:28:40.531Z,19.27
2018-08-18T03:31:09.334Z,21.60
2018-08-18T03:33:38.079Z,21.40
2018-08-18T03:36:21.834Z,25.27
2018-08-18T03:38:50.651Z,21.63
2018-08-18T03:41:19.442Z,20.63
2018-08-18T03:43:48.185Z,20.00
2018-08-18T03:46:16.969Z,20.03
2018-08-18T03:48:45.771Z,21.70
2018-08-18T03:51:14.534Z,20.03
2018-08-18T03:53:43.231Z,19.33
2018-08-18T03:56:11.985Z,18.60
2018-08-18T03:58:53.500Z,19.40
2018-08-18T04:02:00.133Z,18.87
2018-08-18T04:04:30.918Z,19.63
2018-08-18T04:07:00.624Z,22.77
2018-08-18T04:09:31.259Z,21.87
2018-08-18T04:12:01.489Z,20.93
2018-08-18T04:14:35.450Z,21.23
2018-08-18T04:17:04.239Z,21.73
2018-08-18T04:19:33.056Z,21.67
2018-08-18T04:22:01.801Z,23.17
2018-08-18T04:24:36.531Z,21.33
2018-08-18T04:27:05.281Z,20.50
2018-08-18T04:29:34.039Z,21.37
2018-08-18T04:32:02.900Z,20.60
2018-08-18T04:34:31.602Z,21.73
2018-08-18T04:37:01.869Z,22.13
2018-08-18T04:39:30.551Z,20.70
2018-08-18T04:41:59.333Z,21.00
2018-08-18T04:44:28.041Z,20.93
2018-08-18T04:46:56.796Z,21.50
2018-08-18T04:49:25.503Z,20.57
2018-08-18T04:51:54.195Z,22.57
2018-08-18T04:54:22.892Z,20.93
2018-08-18T04:56:51.710Z,24.27
2018-08-18T04:59:21.615Z,20.50
2018-08-18T05:01:50.271Z,19.90
2018-08-18T05:04:19.010Z,23.40
2018-08-18T05:06:47.764Z,21.33
2018-08-18T05:09:16.531Z,22.17
2018-08-18T05:11:45.357Z,22.23
2018-08-18T05:14:13.995Z,22.33
2018-08-18T05:16:42.823Z,21.00
2018-08-18T05:19:11.652Z,21.20
2018-08-18T05:21:40.287Z,22.43
2018-08-18T05:24:22.918Z,21.07
2018-08-18T05:26:52.616Z,20.30
2018-08-18T05:29:23.108Z,18.13
2018-08-18T05:31:51.879Z,20.53
2018-08-18T05:34:20.645Z,19.23
2018-08-18T05:36:49.354Z,19.73
2018-08-18T05:39:18.128Z,19.80
2018-08-18T05:41:46.886Z,19.47
2018-08-18T05:44:15.663Z,20.13
2018-08-18T05:46:44.484Z,20.13
2018-08-18T05:49:17.092Z,19.57
2018-08-18T05:51:48.612Z,23.07
2018-08-18T05:54:21.747Z,19.53
2018-08-18T05:56:50.515Z,19.27
2018-08-18T05:59:19.331Z,20.10
2018-08-18T06:01:48.131Z,21.40
2018-08-18T06:04:18.480Z,21.77
2018-08-18T06:06:47.831Z,21.60
2018-08-18T06:09:17.737Z,21.10
2018-08-18T06:11:46.628Z,20.93
2018-08-18T06:14:15.852Z,20.67
2018-08-18T06:16:45.067Z,26.80
2018-08-18T06:19:13.912Z,24.17
2018-08-18T06:21:42.673Z,19.63
2018-08-18T06:24:11.509Z,23.83
2018-08-18T06:26:40.292Z,21.47
2018-08-18T06:29:08.991Z,21.57
2018-08-18T06:31:52.874Z,24.33
2018-08-18T06:34:21.612Z,18.60
2018-08-18T06:36:50.347Z,19.60
2018-08-18T06:39:19.039Z,20.10
2018-08-18T06:41:47.852Z,17.93
2018-08-18T06:44:17.318Z,21.20
2018-08-18T06:46:48.136Z,18.63
2018-08-18T06:49:16.895Z,20.37
2018-08-18T06:51:45.634Z,18.33
2018-08-18T06:54:14.463Z,21.13
2018-08-18T06:56:43.237Z,21.47
2018-08-18T06:59:12.074Z,19.60
2018-08-18T07:01:40.806Z,21.83
2018-08-18T07:04:13.919Z,21.63
2018-08-18T07:06:42.662Z,20.83
2018-08-18T07:09:11.396Z,19.17
2018-08-18T07:11:40.115Z,18.30
2018-08-18T07:14:08.927Z,19.73
2018-08-18T07:16:37.641Z,17.90
2018-08-18T07:19:06.402Z,17.97
2018-08-18T07:21:35.793Z,17.53
2018-08-18T07:24:04.560Z,18.63
2018-08-18T07:26:33.272Z,23.00
2018-08-18T07:29:02.166Z,22.63
2018-08-18T07:31:30.806Z,17.63
2018-08-18T07:33:59.535Z,20.03
2018-08-18T07:36:28.246Z,24.90
2018-08-18T07:38:57.027Z,21.30
2018-08-18T07:41:25.747Z,16.37
2018-08-18T07:43:54.390Z,13.37
2018-08-18T07:46:23.199Z,13.90
2018-08-18T07:48:51.959Z,13.67
2018-08-18T07:51:20.880Z,15.33
2018-08-18T07:53:49.665Z,13.20
2018-08-18T07:56:18.367Z,11.03
2018-08-18T07:58:47.090Z,14.70
2018-08-18T08:01:15.799Z,19.27
2018-08-18T08:03:44.485Z,12.78
2018-08-18T08:06:13.210Z,9.43
2018-08-18T08:08:48.982Z,12.53
2018-08-18T08:11:17.720Z,13.37
2018-08-18T08:13:46.455Z,10.73
2018-08-18T08:16:15.223Z,14.30
2018-08-18T08:18:43.980Z,23.03
2018-08-18T08:21:12.787Z,8.90
2018-08-18T08:23:41.511Z,10.18
2018-08-18T08:26:10.346Z,12.57
2018-08-18T08:28:39.130Z,10.47
2018-08-18T08:31:07.898Z,8.83
2018-08-18T08:33:38.414Z,12.07
2018-08-18T08:36:10.384Z,8.20
2018-08-18T08:38:52.804Z,10.75
2018-08-18T08:41:24.493Z,13.13
2018-08-18T08:43:53.295Z,10.07
2018-08-18T08:46:22.436Z,8.40
2018-08-18T08:48:57.571Z,17.57
2018-08-18T08:51:26.830Z,8.20
2018-08-18T08:53:57.149Z,10.53
2018-08-18T08:56:31.005Z,10.25
2018-08-18T08:58:59.757Z,8.88
2018-08-18T09:01:28.478Z,11.97
2018-08-18T09:03:57.235Z,17.97
2018-08-18T09:06:25.962Z,10.15
2018-08-18T09:08:58.289Z,7.77
2018-08-18T09:11:27.590Z,7.42
2018-08-18T09:14:02.961Z,13.70
2018-08-18T09:16:32.955Z,9.18
2018-08-18T09:19:01.614Z,7.00
2018-08-18T09:21:37.899Z,9.33
2018-08-18T09:24:06.928Z,10.53
2018-08-18T09:26:39.751Z,10.93
2018-08-18T09:29:08.446Z,16.00
2018-08-18T09:31:37.099Z,10.18
2018-08-18T09:34:05.815Z,9.35
2018-08-18T09:36:34.518Z,8.15
2018-08-18T09:39:03.309Z,9.13
2018-08-18T09:41:32.032Z,7.53
2018-08-18T09:44:00.712Z,10.20
2018-08-18T09:46:29.384Z,7.03
2018-08-18T09:48:58.127Z,7.62
2018-08-18T09:51:26.922Z,8.23
2018-08-18T09:53:55.679Z,6.53
2018-08-18T09:56:24.469Z,7.20
2018-08-18T09:58:53.253Z,7.25
2018-08-18T10:01:22.589Z,7.87
2018-08-18T10:03:51.283Z,8.58
2018-08-18T10:06:20.039Z,10.50
2018-08-18T10:08:48.771Z,9.15
2018-08-18T10:11:17.524Z,11.85
2018-08-18T10:13:46.310Z,8.53
2018-08-18T10:16:15.098Z,8.38
2018-08-18T10:18:49.616Z,9.13
2018-08-18T10:21:18.424Z,19.17
2018-08-18T10:23:47.189Z,6.72
2018-08-18T10:26:15.927Z,7.55
2018-08-18T10:28:44.692Z,8.68
2018-08-18T10:31:13.443Z,9.53
2018-08-18T10:33:42.142Z,10.65
2018-08-18T10:36:10.923Z,8.30
2018-08-18T10:38:39.648Z,9.00
2018-08-18T10:41:08.303Z,7.22
2018-08-18T10:43:37.227Z,7.28
2018-08-18T10:46:06.057Z,8.23
2018-08-18T10:48:34.737Z,10.93
2018-08-18T10:51:25.447Z,9.00
2018-08-18T10:53:54.535Z,8.03
2018-08-18T10:56:23.836Z,5.92
2018-08-18T10:59:08.831Z,7.58
2018-08-18T11:01:39.014Z,8.53
2018-08-18T11:04:07.700Z,7.20
2018-08-18T11:06:36.436Z,8.75
2018-08-18T11:09:06.120Z,10.05
2018-08-18T11:11:34.844Z,7.85
2018-08-18T11:14:03.566Z,5.67
2018-08-18T11:16:32.347Z,9.35
2018-08-18T11:19:01.027Z,6.50
2018-08-18T11:21:33.832Z,4.58
2018-08-18T11:24:08.651Z,6.50
2018-08-18T11:26:39.243Z,5.75
2018-08-18T11:29:15.507Z,10.08
2018-08-18T11:31:44.764Z,10.55
2018-08-18T11:34:13.498Z,5.90
2018-08-18T11:37:01.062Z,9.00
2018-08-18T11:39:31.092Z,8.50
2018-08-18T11:42:00.324Z,6.28
2018-08-18T11:44:29.110Z,8.80
2018-08-18T11:46:57.800Z,7.30
2018-08-18T11:49:26.473Z,8.00
2018-08-18T11:51:56.141Z,9.10
2018-08-18T11:54:24.959Z,9.43
2018-08-18T11:56:54.183Z,8.20
2018-08-18T11:59:22.893Z,7.97
2018-08-18T12:01:53.424Z,4.72
2018-08-18T12:04:22.847Z,5.37
2018-08-18T12:06:59.392Z,8.25
2018-08-18T12:09:28.482Z,5.85
2018-08-18T12:11:57.244Z,4.50
2018-08-18T12:14:25.942Z,8.48
2018-08-18T12:16:54.626Z,5.70
2018-08-18T12:19:23.363Z,5.10
2018-08-18T12:21:52.181Z,8.53
2018-08-18T12:24:21.711Z,9.55
2018-08-18T12:27:01.808Z,9.08
2018-08-18T12:29:31.106Z,6.95
2018-08-18T12:31:59.962Z,7.85
2018-08-18T12:34:28.792Z,7.05
2018-08-18T12:36:57.713Z,7.87
2018-08-18T12:39:26.386Z,7.50
2018-08-18T12:41:55.127Z,6.53
2018-08-18T12:44:28.914Z,5.42
2018-08-18T12:46:57.664Z,8.35
2018-08-18T12:49:26.373Z,7.25
2018-08-18T12:51:55.129Z,8.65
2018-08-18T12:54:23.783Z,6.47
2018-08-18T12:56:52.540Z,5.22
2018-08-18T12:59:21.292Z,7.37
2018-08-18T13:01:51.099Z,5.00
2018-08-18T13:04:21.119Z,6.62
2018-08-18T13:06:51.314Z,6.20
2018-08-18T13:09:21.381Z,5.42
2018-08-18T13:11:51.416Z,6.28
2018-08-18T13:14:24.370Z,6.15
2018-08-18T13:16:53.110Z,7.22
2018-08-18T13:19:23.980Z,5.72
2018-08-18T13:21:52.703Z,5.80
2018-08-18T13:24:21.417Z,7.50
2018-08-18T13:26:50.151Z,5.40
2018-08-18T13:29:18.938Z,6.42
2018-08-18T13:31:47.690Z,11.25
2018-08-18T13:34:17.541Z,10.20
2018-08-18T13:36:47.024Z,6.65
2018-08-18T13:39:18.852Z,5.62
2018-08-18T13:41:48.449Z,5.70
2018-08-18T13:44:23.796Z,9.78
2018-08-18T13:46:52.667Z,8.45
2018-08-18T13:49:24.461Z,9.70
2018-08-18T13:51:53.327Z,8.75
2018-08-18T13:54:22.122Z,7.35
2018-08-18T13:56:50.899Z,5.92
2018-08-18T13:59:34.588Z,7.28
2018-08-18T14:02:03.312Z,9.28
2018-08-18T14:04:31.989Z,9.38
2018-08-18T14:07:00.646Z,5.53
2018-08-18T14:09:29.411Z,7.12
2018-08-18T14:12:03.619Z,9.23
2018-08-18T14:14:32.322Z,11.73
2018-08-18T14:17:01.050Z,7.40
2018-08-18T14:19:29.780Z,6.15
2018-08-18T14:22:04.254Z,7.58
2018-08-18T14:24:34.748Z,7.92
2018-08-18T14:27:04.808Z,8.15
2018-08-18T14:29:34.315Z,7.33
2018-08-18T14:32:06.275Z,8.03
2018-08-18T14:34:34.985Z,8.40
2018-08-18T14:37:09.531Z,10.60
2018-08-18T14:39:39.650Z,7.65
2018-08-18T14:42:08.843Z,7.53
2018-08-18T14:44:38.254Z,8.60
2018-08-18T14:47:07.295Z,13.30
2018-08-18T14:49:36.103Z,12.33
2018-08-18T14:52:04.955Z,7.85
2018-08-18T14:55:36.634Z,9.35
2018-08-18T14:58:05.350Z,8.90
2018-08-18T15:00:34.088Z,8.50
2018-08-18T15:03:02.859Z,9.13
2018-08-18T15:05:31.536Z,6.80
2018-08-18T15:08:01.113Z,19.52
2018-08-18T15:10:41.591Z,6.08
2018-08-18T15:13:11.064Z,5.72
2018-08-18T15:15:39.854Z,8.70
2018-08-18T15:18:12.631Z,7.20
2018-08-18T15:20:41.961Z,8.23
2018-08-18T15:23:11.423Z,8.73
2018-08-18T15:25:41.078Z,6.15
2018-08-18T15:28:14.920Z,7.40
2018-08-18T15:30:47.137Z,10.13
2018-08-18T15:33:16.978Z,8.08
2018-08-18T15:35:45.714Z,7.35
2018-08-18T15:38:14.577Z,6.42
2018-08-18T15:40:43.684Z,6.15
2018-08-18T15:43:12.420Z,10.38
2018-08-18T15:45:56.917Z,8.53
2018-08-18T15:48:25.959Z,7.20
2018-08-18T15:50:54.735Z,9.23
2018-08-18T15:54:00.449Z,8.48
2018-08-18T15:56:30.223Z,11.05
2018-08-18T15:58:59.891Z,11.83
2018-08-18T16:01:29.777Z,6.25
2018-08-18T16:04:01.753Z,7.05
2018-08-18T16:06:30.560Z,13.38
2018-08-18T16:08:59.302Z,9.30
2018-08-18T16:11:28.002Z,10.50
2018-08-18T16:13:56.727Z,8.83
2018-08-18T16:16:25.503Z,8.53
2018-08-18T16:19:02.230Z,12.30
2018-08-18T16:21:33.308Z,7.58
2018-08-18T16:24:02.544Z,9.03
2018-08-18T16:26:31.307Z,8.45
2018-08-18T16:29:00.232Z,9.75
2018-08-18T16:31:28.962Z,8.48
2018-08-18T16:33:57.820Z,7.28
2018-08-18T16:36:32.688Z,11.05
2018-08-18T16:39:01.795Z,13.75
2018-08-18T16:41:30.531Z,13.25
2018-08-18T16:43:59.235Z,8.10
2018-08-18T16:46:31.023Z,9.05
2018-08-18T16:48:59.863Z,13.15
2018-08-18T16:51:28.558Z,11.15
2018-08-18T16:54:11.226Z,9.68
2018-08-18T16:56:39.922Z,12.60
2018-08-18T16:59:08.630Z,8.75
2018-08-18T17:01:37.336Z,11.12
2018-08-18T17:04:06.066Z,8.13
2018-08-18T17:06:34.780Z,9.03
2018-08-18T17:09:04.027Z,11.25
2018-08-18T17:11:32.722Z,8.23
2018-08-18T17:14:01.505Z,9.80
2018-08-18T17:16:30.252Z,10.55
2018-08-18T17:18:58.987Z,9.43
2018-08-18T17:21:27.669Z,8.57
2018-08-18T17:23:56.330Z,9.47
2018-08-18T17:26:25.205Z,9.10
2018-08-18T17:28:54.539Z,12.83
2018-08-18T17:31:23.332Z,18.53
2018-08-18T17:33:51.964Z,9.40
2018-08-18T17:36:20.641Z,9.20
2018-08-18T17:38:49.345Z,10.23
2018-08-18T17:41:18.064Z,22.03
2018-08-18T17:43:46.799Z,13.68
2018-08-18T17:46:15.576Z,9.30
2018-08-18T17:48:49.344Z,12.00
2018-08-18T17:51:18.059Z,13.17
2018-08-18T17:53:53.673Z,12.37
2018-08-18T17:56:22.370Z,10.97
2018-08-18T17:58:51.147Z,12.40
2018-08-18T18:01:19.882Z,17.13
2018-08-18T18:03:48.611Z,12.50
2018-08-18T18:06:17.379Z,10.87
2018-08-18T18:08:46.103Z,15.30
2018-08-18T18:11:14.813Z,10.67
2018-08-18T18:13:43.498Z,18.10
2018-08-18T18:16:23.312Z,13.07
2018-08-18T18:18:52.200Z,12.03
2018-08-18T18:21:21.032Z,12.83
2018-08-18T18:23:49.705Z,16.00
2018-08-18T18:26:18.421Z,11.70
2018-08-18T18:28:47.125Z,13.60
2018-08-18T18:31:15.903Z,13.93
2018-08-18T18:33:48.389Z,15.40
2018-08-18T18:36:17.169Z,16.30
2018-08-18T18:38:54.341Z,15.87
2018-08-18T18:41:23.160Z,19.00
2018-08-18T18:43:59.546Z,13.87
2018-08-18T18:46:28.309Z,13.97
2018-08-18T18:48:57.208Z,14.43
2018-08-18T18:51:26.014Z,13.17
2018-08-18T18:53:57.047Z,14.93
2018-08-18T18:56:25.766Z,14.33
2018-08-18T18:58:54.667Z,16.33
2018-08-18T19:01:23.405Z,16.93
2018-08-18T19:05:19.846Z,14.83
2018-08-18T19:07:52.926Z,17.70
2018-08-18T19:10:23.467Z,18.23
2018-08-18T19:12:53.475Z,15.13
2018-08-18T19:15:22.769Z,18.63
2018-08-18T19:17:51.483Z,13.43
2018-08-18T19:20:25.101Z,14.17
2018-08-18T19:23:26.490Z,15.17
2018-08-18T19:25:55.168Z,15.03
2018-08-18T19:28:23.883Z,17.07
2018-08-18T19:30:52.534Z,14.67
2018-08-18T19:33:21.303Z,13.33
2018-08-18T19:35:51.190Z,17.40
2018-08-18T19:38:20.923Z,14.00
2018-08-18T19:40:52.686Z,23.77
2018-08-18T19:43:24.522Z,19.67
2018-08-18T19:45:54.327Z,13.77
2018-08-18T19:48:24.334Z,14.63
2018-08-18T19:50:58.389Z,16.33
2018-08-18T19:53:31.040Z,16.47
2018-08-18T19:56:00.582Z,19.97
2018-08-18T19:58:29.809Z,16.87
2018-08-18T20:00:58.585Z,14.70
2018-08-18T20:03:27.599Z,17.87
2018-08-18T20:05:56.256Z,14.13
2018-08-18T20:08:26.216Z,19.67
2018-08-18T20:10:55.590Z,15.23
2018-08-18T20:13:25.613Z,15.77
2018-08-18T20:15:57.486Z,15.13
2018-08-18T20:18:26.250Z,17.23
2018-08-18T20:20:57.279Z,20.03
2018-08-18T20:23:25.987Z,18.73
2018-08-18T20:25:54.720Z,17.43
2018-08-18T20:28:23.474Z,16.47
2018-08-18T20:30:52.223Z,13.20
2018-08-18T20:33:20.993Z,13.57
2018-08-18T20:35:49.765Z,14.20
2018-08-18T20:38:18.466Z,18.37
2018-08-18T20:40:47.214Z,13.20
2018-08-18T20:43:15.909Z,14.17
2018-08-18T20:45:48.520Z,13.50
2018-08-18T20:48:19.781Z,14.23
2018-08-18T20:50:48.479Z,18.10
2018-08-18T20:53:17.741Z,15.83
2018-08-18T20:55:56.307Z,18.83
2018-08-18T20:58:25.121Z,20.07
2018-08-18T21:00:53.784Z,21.20
2018-08-18T21:03:23.928Z,17.90
2018-08-18T21:05:52.657Z,22.53
2018-08-18T21:08:21.379Z,18.07
2018-08-18T21:10:50.279Z,24.13
2018-08-18T21:13:19.118Z,17.20
2018-08-18T21:15:47.852Z,16.87
2018-08-18T21:18:19.526Z,16.13
2018-08-18T21:20:48.951Z,18.80
2018-08-18T21:23:18.550Z,20.83
2018-08-18T21:25:50.804Z,20.70
2018-08-18T21:28:20.395Z,19.27
2018-08-18T21:30:49.535Z,20.47
2018-08-18T21:33:18.273Z,16.53
2018-08-18T21:35:46.993Z,15.53
2018-08-18T21:38:15.709Z,16.97
2018-08-18T21:40:44.432Z,17.30
2018-08-18T21:43:24.335Z,16.23
2018-08-18T21:45:53.894Z,17.57
2018-08-18T21:48:32.670Z,17.10
2018-08-18T21:51:02.224Z,20.47
2018-08-18T21:53:30.929Z,17.00
2018-08-18T21:56:00.997Z,17.83
2018-08-18T21:58:29.743Z,15.33
2018-08-18T22:01:03.786Z,14.37
2018-08-18T22:03:32.616Z,14.50
2018-08-18T22:06:01.539Z,14.00
2018-08-18T22:08:30.232Z,15.57
2018-08-18T22:10:58.983Z,15.57
2018-08-18T22:13:27.750Z,18.27
2018-08-18T22:15:56.527Z,16.50
2018-08-18T22:18:25.248Z,16.63
2018-08-18T22:20:53.916Z,17.13
2018-08-18T22:23:22.583Z,20.73
2018-08-18T22:25:51.302Z,22.60
2018-08-18T22:28:21.262Z,17.43
2018-08-18T22:30:50.034Z,18.27
2018-08-18T22:33:18.951Z,15.63
2018-08-18T22:35:51.707Z,16.30
2018-08-18T22:38:20.414Z,14.67
2018-08-18T22:40:49.102Z,14.57
2018-08-18T22:43:22.406Z,15.43
2018-08-18T22:45:51.173Z,14.53
2018-08-18T22:48:19.889Z,14.00
2018-08-18T22:50:48.596Z,15.33
2018-08-18T22:53:17.328Z,15.23
2018-08-18T22:55:46.043Z,18.37
2018-08-18T22:58:14.695Z,14.40
2018-08-18T23:00:45.311Z,15.43
2018-08-18T23:03:14.306Z,16.27
2018-08-18T23:05:42.998Z,15.70
2018-08-18T23:08:11.759Z,17.03
2018-08-18T23:10:40.548Z,16.20
2018-08-18T23:13:11.021Z,16.57
2018-08-18T23:15:39.748Z,17.77
2018-08-18T23:18:08.553Z,16.17
2018-08-18T23:20:37.436Z,17.23
2018-08-18T23:23:06.320Z,17.37
2018-08-18T23:25:35.986Z,18.07
2018-08-18T23:29:34.090Z,17.00
2018-08-18T23:32:16.585Z,17.57
2018-08-18T23:34:45.326Z,16.87
2018-08-18T23:37:18.121Z,18.67
2018-08-18T23:39:47.031Z,16.80
2018-08-18T23:42:20.823Z,18.13
2018-08-18T23:44:49.534Z,16.63
2018-08-18T23:47:18.596Z,19.47
2018-08-18T23:49:47.437Z,17.10
2018-08-18T23:52:16.195Z,16.87
2018-08-18T23:54:45.006Z,17.00
2018-08-18T23:57:16.080Z,19.33
2018-08-18T23:59:45.296Z,15.57
